createdAt,value
2023-03-22T00:03:55.305Z,12.90
2023-03-22T00:08:59.784Z,12.52
2023-03-22T00:14:06.274Z,12.45
2023-03-22T00:19:10.723Z,12.05
2023-03-22T00:24:14.869Z,11.97
2023-03-22T00:29:22.555Z,11.43
2023-03-22T00:34:31.523Z,12.23
2023-03-22T00:39:35.746Z,12.18
2023-03-22T00:44:41.457Z,10.70
2023-03-22T00:49:44.943Z,10.18
2023-03-22T00:54:48.815Z,10.10
2023-03-22T00:59:55.836Z,10.88
2023-03-22T01:04:59.635Z,10.45
2023-03-22T01:10:04.968Z,12.20
2023-03-22T01:15:12.327Z,9.63
2023-03-22T01:20:17.818Z,9.90
2023-03-22T01:25:22.282Z,12.48
2023-03-22T01:30:27.641Z,11.60
2023-03-22T01:40:37.133Z,10.07
2023-03-22T01:45:43.778Z,10.50
2023-03-22T01:50:56.222Z,10.73
2023-03-22T01:56:03.989Z,11.52
2023-03-22T02:01:12.294Z,9.77
2023-03-22T02:06:24.577Z,11.10
2023-03-22T02:11:39.058Z,12.85
2023-03-22T02:17:06.883Z,10.93
2023-03-22T02:22:39.437Z,11.00
2023-03-22T02:28:04.809Z,10.77
2023-03-22T02:33:36.828Z,10.85
2023-03-22T02:39:05.016Z,11.65
2023-03-22T02:44:17.510Z,11.25
2023-03-22T02:49:28.287Z,11.05
2023-03-22T02:54:39.853Z,10.77
2023-03-22T02:59:45.004Z,11.00
2023-03-22T03:04:51.808Z,10.70
2023-03-22T03:09:57.277Z,11.75
2023-03-22T03:15:01.735Z,11.55
2023-03-22T03:25:31.701Z,10.80
2023-03-22T03:30:41.456Z,10.98
2023-03-22T03:35:51.917Z,12.70
2023-03-22T03:41:01.711Z,13.00
2023-03-22T03:46:08.446Z,11.65
2023-03-22T03:51:12.592Z,12.88
2023-03-22T03:56:18.238Z,13.07
2023-03-22T04:01:26.430Z,11.80
2023-03-22T04:06:40.060Z,11.00
2023-03-22T04:11:49.959Z,11.68
2023-03-22T04:16:54.865Z,10.70
2023-03-22T04:22:00.940Z,10.27
2023-03-22T04:27:06.387Z,12.43
2023-03-22T04:32:26.267Z,11.20
2023-03-22T04:37:33.712Z,12.00
2023-03-22T04:42:51.444Z,10.82
2023-03-22T04:48:07.867Z,11.00
2023-03-22T04:53:14.043Z,13.50
2023-03-22T04:58:22.154Z,12.07
2023-03-22T05:03:26.457Z,11.43
2023-03-22T05:08:32.173Z,12.52
2023-03-22T05:13:37.517Z,11.60
2023-03-22T05:18:45.453Z,9.95
2023-03-22T05:23:51.590Z,13.23
2023-03-22T05:28:58.570Z,10.52
2023-03-22T05:34:41.919Z,10.35
2023-03-22T05:40:09.708Z,11.80
2023-03-22T05:45:19.283Z,11.48
2023-03-22T05:50:28.146Z,12.00
2023-03-22T05:55:32.639Z,12.55
2023-03-22T06:00:41.668Z,12.20
2023-03-22T06:05:57.820Z,11.32
2023-03-22T06:11:16.105Z,12.00
2023-03-22T06:16:21.945Z,12.27
2023-03-22T06:21:25.689Z,11.93
2023-03-22T06:26:29.858Z,13.13
2023-03-22T06:31:35.043Z,12.90
2023-03-22T06:36:42.464Z,11.57
2023-03-22T06:41:53.540Z,12.25
2023-03-22T06:46:59.440Z,13.73
2023-03-22T06:52:19.281Z,11.73
2023-03-22T06:57:23.505Z,12.35
2023-03-22T07:02:28.346Z,13.43
2023-03-22T07:07:49.900Z,12.93
2023-03-22T07:12:54.092Z,13.10
2023-03-22T07:18:00.397Z,11.40
2023-03-22T07:23:04.972Z,12.20
2023-03-22T07:28:15.334Z,11.43
2023-03-22T07:33:21.152Z,10.43
2023-03-22T07:43:28.525Z,11.05
2023-03-22T07:48:36.532Z,11.43
2023-03-22T07:54:07.834Z,12.82
2023-03-22T08:04:16.711Z,13.15
2023-03-22T08:09:46.710Z,11.57
2023-03-22T08:14:51.230Z,10.80
2023-03-22T08:20:00.654Z,9.80
2023-03-22T08:25:19.997Z,9.13
2023-03-22T08:30:24.718Z,9.07
2023-03-22T08:35:31.700Z,8.00
2023-03-22T08:40:35.630Z,7.90
2023-03-22T08:45:40.060Z,6.87
2023-03-22T08:50:53.063Z,6.72
2023-03-22T08:56:04.961Z,6.82
2023-03-22T09:01:38.808Z,6.88
2023-03-22T09:06:47.055Z,6.82
2023-03-22T09:11:51.231Z,6.60
2023-03-22T09:16:55.201Z,7.18
2023-03-22T09:22:01.048Z,6.22
2023-03-22T09:27:13.855Z,7.03
2023-03-22T09:32:17.711Z,6.43
2023-03-22T09:37:30.368Z,6.25
2023-03-22T09:42:38.985Z,6.10
2023-03-22T09:47:49.144Z,5.15
2023-03-22T09:52:54.828Z,5.05
2023-03-22T09:58:06.501Z,5.72
2023-03-22T10:03:21.814Z,5.25
2023-03-22T10:08:53.843Z,5.00
2023-03-22T10:14:02.202Z,5.55
2023-03-22T10:19:12.805Z,4.07
2023-03-22T10:24:23.294Z,5.07
2023-03-22T10:29:32.365Z,4.60
2023-03-22T10:34:36.704Z,4.93
2023-03-22T10:39:46.357Z,4.70
2023-03-22T10:44:55.164Z,4.22
2023-03-22T10:50:03.569Z,4.68
2023-03-22T10:55:13.094Z,4.43
2023-03-22T11:00:17.767Z,4.68
2023-03-22T11:05:24.880Z,3.80
2023-03-22T11:10:32.974Z,3.42
2023-03-22T11:15:39.930Z,3.10
2023-03-22T11:20:55.562Z,2.75
2023-03-22T11:26:06.852Z,2.65
2023-03-22T11:31:12.401Z,2.35
2023-03-22T11:36:18.929Z,2.88
2023-03-22T11:41:26.100Z,2.60
2023-03-22T11:46:30.927Z,2.30
2023-03-22T11:56:45.214Z,2.33
2023-03-22T12:01:52.219Z,2.38
2023-03-22T12:06:59.164Z,2.70
2023-03-22T12:12:06.642Z,1.90
2023-03-22T12:17:16.898Z,1.92
2023-03-22T12:22:26.472Z,2.15
2023-03-22T12:27:37.524Z,2.40
2023-03-22T12:32:43.945Z,2.17
2023-03-22T12:37:52.062Z,1.60
2023-03-22T12:43:06.127Z,2.00
2023-03-22T12:48:17.000Z,2.10
2023-03-22T12:53:27.407Z,2.28
2023-03-22T12:58:32.529Z,2.25
2023-03-22T13:03:40.271Z,1.70
2023-03-22T13:09:16.229Z,1.67
2023-03-22T13:14:58.746Z,2.35
2023-03-22T13:20:25.656Z,2.25
2023-03-22T13:25:31.328Z,1.88
2023-03-22T13:30:49.088Z,2.67
2023-03-22T13:35:56.796Z,2.00
2023-03-22T13:41:02.934Z,1.70
2023-03-22T13:46:26.345Z,2.20
2023-03-22T13:51:32.098Z,2.15
2023-03-22T13:56:53.057Z,1.80
2023-03-22T14:02:04.500Z,2.25
2023-03-22T14:07:19.660Z,2.63
2023-03-22T14:12:29.328Z,1.70
2023-03-22T14:17:42.487Z,2.30
